createdAt,value
2023-08-07T00:01:52.241Z,76.12
2023-08-07T00:04:18.645Z,75.30
2023-08-07T00:06:44.991Z,74.73
2023-08-07T00:09:11.343Z,74.79
2023-08-07T00:11:37.688Z,74.84
2023-08-07T00:14:04.126Z,74.93
2023-08-07T00:16:30.503Z,74.05
2023-08-07T00:18:57.517Z,75.71
2023-08-07T00:21:24.479Z,75.50
2023-08-07T00:23:50.947Z,75.05
2023-08-07T00:26:17.519Z,73.79
2023-08-07T00:28:44.712Z,74.76
2023-08-07T00:31:11.176Z,74.76
2023-08-07T00:33:37.575Z,75.54
2023-08-07T00:36:04.239Z,74.59
2023-08-07T00:38:30.592Z,74.52
2023-08-07T00:40:56.943Z,74.30
2023-08-07T00:43:23.292Z,73.79
2023-08-07T00:45:50.082Z,73.91
2023-08-07T00:48:17.656Z,73.23
2023-08-07T00:50:47.561Z,72.79
2023-08-07T00:53:14.644Z,72.82
2023-08-07T00:55:41.319Z,72.57
2023-08-07T00:58:07.653Z,73.43
2023-08-07T01:00:34.008Z,73.24
2023-08-07T01:03:00.607Z,71.77
2023-08-07T01:05:27.420Z,72.79
2023-08-07T01:07:55.862Z,73.76
2023-08-07T01:10:34.238Z,74.13
2023-08-07T01:13:07.566Z,73.50
2023-08-07T01:15:34.863Z,73.11
2023-08-07T01:18:01.528Z,72.94
2023-08-07T01:20:27.889Z,74.26
2023-08-07T01:22:54.272Z,74.05
2023-08-07T01:25:20.666Z,74.45
2023-08-07T01:27:56.082Z,74.24
2023-08-07T01:30:37.280Z,74.83
2023-08-07T01:33:14.197Z,74.06
2023-08-07T01:35:46.544Z,73.61
2023-08-07T01:38:14.080Z,74.98
2023-08-07T01:40:40.645Z,76.03
2023-08-07T01:43:07.037Z,76.04
2023-08-07T01:45:33.486Z,76.78
2023-08-07T01:48:00.576Z,75.34
2023-08-07T01:50:27.083Z,75.88
2023-08-07T01:52:53.616Z,75.81
2023-08-07T01:55:21.462Z,75.22
2023-08-07T01:57:47.819Z,75.44
2023-08-07T02:00:14.329Z,77.33
2023-08-07T02:02:40.745Z,76.86
2023-08-07T02:05:07.594Z,77.49
2023-08-07T02:07:33.945Z,78.46
2023-08-07T02:10:00.313Z,77.28
2023-08-07T02:12:27.874Z,76.70
2023-08-07T02:14:54.360Z,77.70
2023-08-07T02:17:22.788Z,78.02
2023-08-07T02:19:49.159Z,78.59
2023-08-07T02:22:15.612Z,78.21
2023-08-07T02:24:42.005Z,78.42
2023-08-07T02:27:08.371Z,78.83
2023-08-07T02:29:37.616Z,79.85
2023-08-07T02:32:04.912Z,78.82
2023-08-07T02:34:32.156Z,79.21
2023-08-07T02:37:02.114Z,79.95
2023-08-07T02:39:28.465Z,78.81
2023-08-07T02:41:54.809Z,77.94
2023-08-07T02:44:21.752Z,79.20
2023-08-07T02:46:48.215Z,79.18
2023-08-07T02:49:14.559Z,79.42
2023-08-07T02:51:40.950Z,81.39
2023-08-07T02:54:07.339Z,81.39
2023-08-07T02:56:34.007Z,81.33
2023-08-07T02:59:02.534Z,81.27
2023-08-07T03:01:29.661Z,80.72
2023-08-07T03:03:56.004Z,81.35
2023-08-07T03:06:22.397Z,80.32
2023-08-07T03:08:48.749Z,80.58
2023-08-07T03:11:15.105Z,82.77
2023-08-07T03:13:43.065Z,83.18
2023-08-07T03:16:09.749Z,83.14
2023-08-07T03:18:36.980Z,82.33
2023-08-07T03:21:03.435Z,84.02
2023-08-07T03:23:30.220Z,82.65
2023-08-07T03:28:39.861Z,83.36
2023-08-07T03:31:06.791Z,83.16
2023-08-07T03:33:33.349Z,83.53
2023-08-07T03:35:59.706Z,82.87
2023-08-07T03:38:26.709Z,81.45
2023-08-07T03:40:53.065Z,82.80
2023-08-07T03:43:19.448Z,82.19
2023-08-07T03:45:45.835Z,80.61
2023-08-07T03:48:12.201Z,81.68
2023-08-07T03:50:38.779Z,79.19
2023-08-07T03:53:08.136Z,81.97
2023-08-07T03:55:35.565Z,81.56
2023-08-07T03:58:02.246Z,81.71
2023-08-07T04:00:28.826Z,82.98
2023-08-07T04:02:55.320Z,82.47
2023-08-07T04:05:21.720Z,83.78
2023-08-07T04:07:48.121Z,82.56
2023-08-07T04:10:14.547Z,83.34
2023-08-07T04:12:40.956Z,84.33
2023-08-07T04:15:07.966Z,84.01
2023-08-07T04:17:34.375Z,84.01
2023-08-07T04:20:00.811Z,82.41
2023-08-07T04:22:27.210Z,84.93
2023-08-07T04:24:53.569Z,85.41
2023-08-07T04:27:19.921Z,86.71
2023-08-07T04:29:46.320Z,84.47
2023-08-07T04:32:12.681Z,86.13
2023-08-07T04:34:39.075Z,84.47
2023-08-07T04:37:06.360Z,85.23
2023-08-07T04:39:33.245Z,85.37
2023-08-07T04:41:59.618Z,85.67
2023-08-07T04:44:26.075Z,84.42
2023-08-07T04:46:53.510Z,87.01
2023-08-07T04:49:20.144Z,86.64
2023-08-07T04:51:46.497Z,85.00
2023-08-07T04:54:12.852Z,84.50
2023-08-07T04:56:39.232Z,85.79
2023-08-07T04:59:05.593Z,84.86
2023-08-07T05:01:31.948Z,85.71
2023-08-07T05:03:59.030Z,85.99
2023-08-07T05:06:25.696Z,87.05
2023-08-07T05:08:52.042Z,85.50
2023-08-07T05:11:18.425Z,83.81
2023-08-07T05:13:44.765Z,85.06
2023-08-07T05:16:11.137Z,84.81
2023-08-07T05:18:37.623Z,84.46
2023-08-07T05:21:04.158Z,81.78
2023-08-07T05:23:30.545Z,81.50
2023-08-07T05:25:57.033Z,80.89
2023-08-07T05:28:23.390Z,79.93
2023-08-07T05:30:49.825Z,80.23
2023-08-07T05:33:16.608Z,80.00
2023-08-07T05:35:43.607Z,79.75
2023-08-07T05:38:09.999Z,80.87
2023-08-07T05:40:37.723Z,83.92
2023-08-07T05:43:04.152Z,84.12
2023-08-07T05:45:30.547Z,84.00
2023-08-07T05:47:56.930Z,83.33
2023-08-07T05:50:23.298Z,81.88
2023-08-07T05:52:49.661Z,79.51
2023-08-07T05:55:16.036Z,80.16
2023-08-07T05:57:42.469Z,80.37
2023-08-07T06:00:14.913Z,79.60
2023-08-07T06:02:41.331Z,79.68
2023-08-07T06:05:08.334Z,78.84
2023-08-07T06:07:34.752Z,76.66
2023-08-07T06:10:01.132Z,76.51
2023-08-07T06:12:27.466Z,75.71
2023-08-07T06:14:53.862Z,76.35
2023-08-07T06:17:20.356Z,75.17
2023-08-07T06:19:46.816Z,74.96
2023-08-07T06:22:13.162Z,75.86
2023-08-07T06:24:39.511Z,74.44
2023-08-07T06:27:06.194Z,72.78
2023-08-07T06:29:32.544Z,72.27
2023-08-07T06:31:59.138Z,71.64
2023-08-07T06:34:25.707Z,72.92
2023-08-07T06:36:52.220Z,73.92
2023-08-07T06:39:18.598Z,75.12
2023-08-07T06:41:44.987Z,77.59
2023-08-07T06:44:11.380Z,75.70
2023-08-07T06:46:37.733Z,77.45
2023-08-07T06:49:04.175Z,75.36
2023-08-07T06:51:30.621Z,76.21
2023-08-07T06:53:57.042Z,74.74
2023-08-07T06:56:23.399Z,74.23
2023-08-07T06:58:49.845Z,74.41
2023-08-07T07:01:16.271Z,73.67
2023-08-07T07:03:42.693Z,72.02
2023-08-07T07:06:09.575Z,71.71
2023-08-07T07:08:35.940Z,70.79
2023-08-07T07:11:02.407Z,71.95
2023-08-07T07:13:28.804Z,70.88
2023-08-07T07:15:56.099Z,69.90
2023-08-07T07:18:22.640Z,71.64
2023-08-07T07:20:49.043Z,70.46
2023-08-07T07:23:15.405Z,70.05
2023-08-07T07:25:41.757Z,69.86
2023-08-07T07:28:08.103Z,70.52
2023-08-07T07:30:34.492Z,69.43
2023-08-07T07:33:00.917Z,67.43
2023-08-07T07:35:28.477Z,68.02
2023-08-07T07:37:54.835Z,67.60
2023-08-07T07:40:21.236Z,67.36
2023-08-07T07:42:47.568Z,67.19
2023-08-07T07:45:13.938Z,64.98
2023-08-07T07:47:40.281Z,64.77
2023-08-07T07:50:09.888Z,65.85
2023-08-07T07:52:36.252Z,66.04
2023-08-07T07:55:03.073Z,66.07
2023-08-07T07:57:29.538Z,64.76
2023-08-07T07:59:55.985Z,65.02
2023-08-07T08:02:23.516Z,67.86
2023-08-07T08:04:50.134Z,66.68
2023-08-07T08:07:16.645Z,67.25
2023-08-07T08:09:43.089Z,66.27
2023-08-07T08:12:09.851Z,64.06
2023-08-07T08:14:50.501Z,65.51
2023-08-07T08:17:21.924Z,63.53
2023-08-07T08:19:50.916Z,64.52
2023-08-07T08:22:17.992Z,65.22
2023-08-07T08:24:44.328Z,64.47
2023-08-07T08:27:10.764Z,62.25
2023-08-07T08:29:37.239Z,63.20
2023-08-07T08:32:03.744Z,62.32
2023-08-07T08:34:30.315Z,64.27
2023-08-07T08:36:56.814Z,64.60
2023-08-07T08:39:23.427Z,64.62
2023-08-07T08:41:50.989Z,64.79
2023-08-07T08:44:18.318Z,63.47
2023-08-07T08:46:45.492Z,62.64
2023-08-07T08:49:12.256Z,61.50
2023-08-07T08:51:38.616Z,62.77
2023-08-07T08:54:05.038Z,61.11
2023-08-07T08:56:32.236Z,59.98
2023-08-07T08:58:59.008Z,59.98
2023-08-07T09:01:26.823Z,59.50
2023-08-07T09:03:54.855Z,59.54
2023-08-07T09:06:21.409Z,56.92
2023-08-07T09:08:48.378Z,57.71
2023-08-07T09:11:14.864Z,57.00
2023-08-07T09:13:41.836Z,55.99
2023-08-07T09:16:09.868Z,56.58
2023-08-07T09:18:36.674Z,58.20
2023-08-07T09:21:03.355Z,58.07
2023-08-07T09:23:29.869Z,58.93
2023-08-07T09:26:06.410Z,58.29
2023-08-07T09:28:33.559Z,61.07
2023-08-07T09:31:00.322Z,60.65
2023-08-07T09:33:28.027Z,61.12
2023-08-07T09:35:59.148Z,61.51
2023-08-07T09:38:29.292Z,61.11
2023-08-07T09:40:58.889Z,59.03
2023-08-07T09:43:25.297Z,59.15
2023-08-07T09:45:51.785Z,62.13
2023-08-07T09:48:29.056Z,63.52
2023-08-07T09:50:59.772Z,63.19
2023-08-07T09:53:27.736Z,65.23
2023-08-07T09:55:54.572Z,65.14
2023-08-07T09:58:20.994Z,66.69
2023-08-07T10:00:49.154Z,68.36
2023-08-07T10:03:15.905Z,64.63
2023-08-07T10:05:43.476Z,63.07
2023-08-07T10:08:11.573Z,63.50
2023-08-07T10:10:38.487Z,62.02
2023-08-07T10:13:05.782Z,60.88
2023-08-07T10:15:33.613Z,60.93
2023-08-07T10:18:00.187Z,61.28
2023-08-07T10:20:28.732Z,61.65
2023-08-07T10:22:58.584Z,59.87
2023-08-07T10:25:25.379Z,58.76
2023-08-07T10:27:53.764Z,61.23
2023-08-07T10:30:21.324Z,61.64
2023-08-07T10:32:49.453Z,62.49
2023-08-07T10:35:26.464Z,61.28
2023-08-07T10:37:54.913Z,60.46
2023-08-07T10:40:22.386Z,61.34
2023-08-07T10:42:55.842Z,60.23
2023-08-07T10:45:23.922Z,61.91
2023-08-07T10:48:03.192Z,62.46
2023-08-07T10:50:31.475Z,61.37
2023-08-07T10:52:58.185Z,61.91
2023-08-07T10:55:25.533Z,61.39
2023-08-07T10:57:51.901Z,60.46
2023-08-07T11:00:18.864Z,61.41
2023-08-07T11:02:49.185Z,62.07
2023-08-07T11:05:15.662Z,65.03
2023-08-07T11:07:42.746Z,66.26
2023-08-07T11:10:09.735Z,69.61
2023-08-07T11:12:37.357Z,67.69
2023-08-07T11:15:04.017Z,66.38
2023-08-07T11:17:30.617Z,67.02
2023-08-07T11:19:57.449Z,68.75
2023-08-07T11:22:24.023Z,67.67
2023-08-07T11:24:51.861Z,67.37
2023-08-07T11:27:18.270Z,65.34
2023-08-07T11:29:49.152Z,65.47
2023-08-07T11:32:15.737Z,65.18
2023-08-07T11:34:49.237Z,65.11
2023-08-07T11:37:18.961Z,64.25
2023-08-07T11:39:45.648Z,63.42
2023-08-07T11:42:12.108Z,60.67
2023-08-07T11:44:38.474Z,58.17
2023-08-07T11:47:05.765Z,58.33
2023-08-07T11:49:33.165Z,57.98
2023-08-07T11:51:59.613Z,56.97
2023-08-07T11:54:27.135Z,58.45
2023-08-07T11:56:53.468Z,58.42
2023-08-07T11:59:20.083Z,57.20
2023-08-07T12:01:46.993Z,56.91
2023-08-07T12:04:14.281Z,55.16
2023-08-07T12:06:54.038Z,53.59
2023-08-07T12:09:20.566Z,54.19
2023-08-07T12:11:46.920Z,54.14
2023-08-07T12:14:18.199Z,52.42
2023-08-07T12:16:46.791Z,50.44
2023-08-07T12:19:14.001Z,50.94
2023-08-07T12:21:40.513Z,51.01
2023-08-07T12:24:08.405Z,52.38
2023-08-07T12:26:34.830Z,53.39
2023-08-07T12:29:02.303Z,52.57
2023-08-07T12:31:28.705Z,52.94
2023-08-07T12:33:55.835Z,51.17
2023-08-07T12:36:22.447Z,52.51
2023-08-07T12:38:49.098Z,53.79
2023-08-07T12:43:45.002Z,53.06
2023-08-07T12:48:40.596Z,51.64
2023-08-07T12:51:06.997Z,52.81
2023-08-07T12:53:33.420Z,52.51
2023-08-07T12:55:59.856Z,53.45
2023-08-07T12:58:28.736Z,55.00
2023-08-07T13:00:55.325Z,54.48
2023-08-07T13:03:22.122Z,55.25
2023-08-07T13:05:48.568Z,56.68
2023-08-07T13:08:15.311Z,54.71
2023-08-07T13:10:41.669Z,54.79
2023-08-07T13:13:08.068Z,56.72
2023-08-07T13:15:34.533Z,60.20
2023-08-07T13:18:01.787Z,59.42
2023-08-07T13:20:28.394Z,57.64
2023-08-07T13:22:54.824Z,55.04
2023-08-07T13:25:21.525Z,57.84
2023-08-07T13:27:47.913Z,58.45
2023-08-07T13:30:14.343Z,60.04
2023-08-07T13:32:41.161Z,59.52
2023-08-07T13:35:07.954Z,59.62
2023-08-07T13:37:34.720Z,59.52
2023-08-07T13:40:01.288Z,59.21
2023-08-07T13:42:28.587Z,60.02
2023-08-07T13:44:56.763Z,59.00
2023-08-07T13:47:23.257Z,59.50
2023-08-07T13:49:49.706Z,60.53
2023-08-07T13:52:16.488Z,62.37
2023-08-07T13:54:43.019Z,61.79
2023-08-07T13:57:09.369Z,61.34
2023-08-07T13:59:35.734Z,60.26
2023-08-07T14:02:02.317Z,61.59
2023-08-07T14:04:28.795Z,59.70
2023-08-07T14:06:55.146Z,62.67
2023-08-07T14:09:23.059Z,63.68
2023-08-07T14:11:50.462Z,63.74
2023-08-07T14:14:17.198Z,63.35
2023-08-07T14:16:44.173Z,62.70
2023-08-07T14:19:10.805Z,61.04
2023-08-07T14:21:37.212Z,61.31
2023-08-07T14:24:03.868Z,61.12
2023-08-07T14:26:30.375Z,60.89
2023-08-07T14:28:56.738Z,60.39
2023-08-07T14:31:23.194Z,59.12
2023-08-07T14:33:50.003Z,59.06
2023-08-07T14:36:16.794Z,59.70
2023-08-07T14:38:43.219Z,58.94
2023-08-07T14:41:09.633Z,59.41
2023-08-07T14:43:36.131Z,59.79
2023-08-07T14:46:02.614Z,60.55
2023-08-07T14:48:29.185Z,62.58
2023-08-07T14:50:57.222Z,61.37
2023-08-07T14:53:23.793Z,61.46
2023-08-07T14:55:50.209Z,61.45
2023-08-07T14:58:16.549Z,59.48
2023-08-07T15:00:43.056Z,59.06
2023-08-07T15:03:09.492Z,59.31
2023-08-07T15:05:35.977Z,59.46
2023-08-07T15:08:02.886Z,59.05
2023-08-07T15:10:29.777Z,59.25
2023-08-07T15:12:57.069Z,59.81
2023-08-07T15:15:23.770Z,59.73
2023-08-07T15:17:50.220Z,58.69
2023-08-07T15:20:16.825Z,58.70
2023-08-07T15:22:43.215Z,58.88
2023-08-07T15:25:09.933Z,59.62
2023-08-07T15:27:36.305Z,58.17
2023-08-07T15:30:03.005Z,58.24
2023-08-07T15:32:29.385Z,56.88
2023-08-07T15:34:55.777Z,56.63
2023-08-07T15:37:22.126Z,56.88
2023-08-07T15:39:48.498Z,57.76
2023-08-07T15:42:14.857Z,58.54
2023-08-07T15:44:41.287Z,65.52
2023-08-07T15:47:07.703Z,67.83
2023-08-07T15:49:34.123Z,67.41
2023-08-07T15:52:00.508Z,68.43
2023-08-07T15:54:26.918Z,67.99
2023-08-07T15:56:53.462Z,66.79
2023-08-07T15:59:19.862Z,65.40
2023-08-07T16:01:46.252Z,64.68
2023-08-07T16:04:12.866Z,63.51
2023-08-07T16:06:40.871Z,61.88
2023-08-07T16:09:08.935Z,60.75
2023-08-07T16:11:35.368Z,60.56
2023-08-07T16:14:01.847Z,59.54
2023-08-07T16:16:28.380Z,57.82
2023-08-07T16:18:54.892Z,57.46
2023-08-07T16:21:21.286Z,56.91
2023-08-07T16:23:47.663Z,56.97
2023-08-07T16:26:14.080Z,56.03
2023-08-07T16:28:40.501Z,56.72
2023-08-07T16:31:06.884Z,55.11
2023-08-07T16:33:33.291Z,53.53
2023-08-07T16:36:00.172Z,53.05
2023-08-07T16:38:26.540Z,53.40
2023-08-07T16:40:52.888Z,53.97
2023-08-07T16:43:19.240Z,54.74
2023-08-07T16:45:45.640Z,56.92
2023-08-07T16:48:12.531Z,56.22
2023-08-07T16:50:39.493Z,56.26
2023-08-07T16:53:08.039Z,57.05
2023-08-07T16:55:34.411Z,57.67
2023-08-07T16:58:00.782Z,58.02
2023-08-07T17:00:27.179Z,56.89
2023-08-07T17:02:53.612Z,58.69
2023-08-07T17:05:23.017Z,60.10
2023-08-07T17:07:49.416Z,58.60
2023-08-07T17:10:17.299Z,58.04
2023-08-07T17:12:43.949Z,58.19
2023-08-07T17:15:10.732Z,57.40
2023-08-07T17:17:37.272Z,57.04
2023-08-07T17:20:04.976Z,56.48
2023-08-07T17:22:31.588Z,55.49
2023-08-07T17:24:59.252Z,54.90
2023-08-07T17:27:25.636Z,55.07
2023-08-07T17:29:52.128Z,54.33
2023-08-07T17:32:18.561Z,55.72
2023-08-07T17:34:44.976Z,55.38
2023-08-07T17:37:11.389Z,55.66
2023-08-07T17:39:37.762Z,55.31
2023-08-07T17:42:04.551Z,55.51
2023-08-07T17:44:33.996Z,54.99
2023-08-07T17:47:00.996Z,56.34
2023-08-07T17:49:29.083Z,56.32
2023-08-07T17:51:55.669Z,56.24
2023-08-07T17:54:22.134Z,56.17
2023-08-07T17:56:50.029Z,56.85
2023-08-07T17:59:16.458Z,57.76
2023-08-07T18:01:42.881Z,58.92
2023-08-07T18:04:10.140Z,60.55
2023-08-07T18:06:36.622Z,60.60
2023-08-07T18:09:03.055Z,60.45
2023-08-07T18:11:29.507Z,61.04
2023-08-07T18:13:56.000Z,62.69
2023-08-07T18:16:24.001Z,63.20
2023-08-07T18:18:50.504Z,63.27
2023-08-07T18:21:18.797Z,64.80
2023-08-07T18:23:45.143Z,68.88
2023-08-07T18:26:11.656Z,71.17
2023-08-07T18:28:39.423Z,73.51
2023-08-07T18:31:07.007Z,78.45
2023-08-07T18:33:34.549Z,82.29
2023-08-07T18:36:01.343Z,82.55
2023-08-07T18:38:28.152Z,83.06
2023-08-07T18:40:54.625Z,82.55
2023-08-07T18:43:21.109Z,80.92
2023-08-07T18:45:47.551Z,80.48
2023-08-07T18:48:14.046Z,79.78
2023-08-07T18:50:41.979Z,78.25
2023-08-07T18:53:09.040Z,78.55
2023-08-07T18:55:35.457Z,77.88
2023-08-07T18:58:02.265Z,76.78
2023-08-07T19:00:28.628Z,76.65
2023-08-07T19:02:55.120Z,76.95
2023-08-07T19:05:21.567Z,75.46
2023-08-07T19:07:47.910Z,74.31
2023-08-07T19:10:14.317Z,74.66
2023-08-07T19:12:40.695Z,73.47
2023-08-07T19:15:09.510Z,73.91
2023-08-07T19:17:35.898Z,72.30
2023-08-07T19:20:02.397Z,74.06
2023-08-07T19:22:28.848Z,72.20
2023-08-07T19:24:55.212Z,72.79
2023-08-07T19:27:21.576Z,72.77
2023-08-07T19:29:47.926Z,75.10
2023-08-07T19:32:15.400Z,77.66
2023-08-07T19:34:41.794Z,82.36
2023-08-07T19:37:08.300Z,82.77
2023-08-07T19:39:34.721Z,83.40
2023-08-07T19:42:01.174Z,84.29
2023-08-07T19:44:27.680Z,82.07
2023-08-07T19:46:54.112Z,82.70
2023-08-07T19:49:20.450Z,83.00
2023-08-07T19:51:47.034Z,82.48
2023-08-07T19:54:13.440Z,82.02
2023-08-07T19:56:39.819Z,80.98
2023-08-07T19:59:06.452Z,81.88
2023-08-07T20:01:33.127Z,81.13
2023-08-07T20:04:00.054Z,81.55
2023-08-07T20:06:26.636Z,81.25
2023-08-07T20:08:53.064Z,81.68
2023-08-07T20:11:19.431Z,80.52
2023-08-07T20:13:46.303Z,81.54
2023-08-07T20:16:12.809Z,82.21
2023-08-07T20:18:39.320Z,81.42
2023-08-07T20:21:05.679Z,79.97
2023-08-07T20:23:32.007Z,78.90
2023-08-07T20:25:58.658Z,78.15
2023-08-07T20:28:25.036Z,77.50
2023-08-07T20:30:51.521Z,77.19
2023-08-07T20:33:18.124Z,76.68
2023-08-07T20:35:44.566Z,76.71
2023-08-07T20:38:10.944Z,77.32
2023-08-07T20:40:37.378Z,76.33
2023-08-07T20:43:03.906Z,75.68
2023-08-07T20:45:30.288Z,74.79
2023-08-07T20:47:56.671Z,76.85
2023-08-07T20:50:23.098Z,76.75
2023-08-07T20:52:49.510Z,78.00
2023-08-07T20:55:15.871Z,75.57
2023-08-07T20:57:42.275Z,76.64
2023-08-07T21:00:09.827Z,77.03
2023-08-07T21:02:36.273Z,76.74
2023-08-07T21:05:02.714Z,75.73
2023-08-07T21:07:29.234Z,75.85
2023-08-07T21:09:55.660Z,77.88
2023-08-07T21:12:21.999Z,78.97
2023-08-07T21:14:48.354Z,77.71
2023-08-07T21:17:15.165Z,76.99
2023-08-07T21:19:41.799Z,77.52
2023-08-07T21:22:08.462Z,75.71
2023-08-07T21:24:35.548Z,74.28
2023-08-07T21:27:02.049Z,74.15
2023-08-07T21:29:28.699Z,74.27
2023-08-07T21:31:55.636Z,74.03
2023-08-07T21:34:22.333Z,72.02
2023-08-07T21:36:49.024Z,74.61
2023-08-07T21:39:15.807Z,73.60
2023-08-07T21:41:42.138Z,71.57
2023-08-07T21:44:08.527Z,71.59
2023-08-07T21:46:34.908Z,70.36
2023-08-07T21:49:01.685Z,70.19
2023-08-07T21:51:29.512Z,68.91
2023-08-07T21:53:55.923Z,69.91
2023-08-07T21:56:22.281Z,67.56
2023-08-07T21:58:48.885Z,67.53
2023-08-07T22:01:15.253Z,67.62
2023-08-07T22:03:41.731Z,68.77
2023-08-07T22:06:08.163Z,67.78
2023-08-07T22:08:34.498Z,68.22
2023-08-07T22:11:01.504Z,67.73
2023-08-07T22:13:27.853Z,68.00
2023-08-07T22:15:54.726Z,66.76
2023-08-07T22:18:21.224Z,67.89
2023-08-07T22:20:47.629Z,67.84
2023-08-07T22:23:14.142Z,66.78
2023-08-07T22:25:40.507Z,67.80
2023-08-07T22:28:08.016Z,67.06
2023-08-07T22:30:35.022Z,67.36
2023-08-07T22:33:03.587Z,67.01
2023-08-07T22:35:31.004Z,66.74
2023-08-07T22:37:57.839Z,65.76
2023-08-07T22:40:24.262Z,66.22
2023-08-07T22:42:50.654Z,67.38
2023-08-07T22:45:17.091Z,66.68
2023-08-07T22:47:43.445Z,65.75
2023-08-07T22:50:10.028Z,65.81
2023-08-07T22:52:36.377Z,65.14
2023-08-07T22:55:03.694Z,65.07
2023-08-07T22:57:30.061Z,65.10
2023-08-07T22:59:56.945Z,64.18
2023-08-07T23:02:23.376Z,65.33
2023-08-07T23:04:49.755Z,64.95
2023-08-07T23:07:16.880Z,65.61
2023-08-07T23:09:43.241Z,64.94
2023-08-07T23:12:10.069Z,64.64
2023-08-07T23:14:36.417Z,64.27
2023-08-07T23:17:05.121Z,64.73
2023-08-07T23:19:32.264Z,64.41
2023-08-07T23:21:59.006Z,66.61
2023-08-07T23:24:25.531Z,69.00
2023-08-07T23:26:51.888Z,68.81
2023-08-07T23:29:18.372Z,69.82
2023-08-07T23:31:44.747Z,69.60
2023-08-07T23:34:11.217Z,70.28
2023-08-07T23:36:37.563Z,71.12
2023-08-07T23:39:04.026Z,70.72
2023-08-07T23:41:30.395Z,70.22
2023-08-07T23:43:56.767Z,71.05
2023-08-07T23:46:23.221Z,71.41
2023-08-07T23:48:49.842Z,71.62
2023-08-07T23:51:16.194Z,71.11
2023-08-07T23:53:42.562Z,70.65
2023-08-07T23:56:09.011Z,70.54
2023-08-07T23:58:35.531Z,69.90
